createdAt,value
2018-06-07T00:01:43.065Z,99.90
2018-06-07T00:03:46.207Z,99.90
2018-06-07T00:05:49.385Z,99.90
2018-06-07T00:07:52.544Z,99.90
2018-06-07T00:09:55.708Z,99.90
2018-06-07T00:11:58.890Z,99.90
2018-06-07T00:14:02.055Z,99.90
2018-06-07T00:16:05.264Z,99.90
2018-06-07T00:18:08.424Z,99.90
2018-06-07T00:20:11.600Z,99.90
2018-06-07T00:22:14.747Z,99.90
2018-06-07T00:24:17.909Z,99.90
2018-06-07T00:26:21.055Z,99.90
2018-06-07T00:28:24.257Z,99.90
2018-06-07T00:30:27.464Z,99.90
2018-06-07T00:32:31.568Z,99.90
2018-06-07T00:34:34.768Z,99.90
2018-06-07T00:36:37.954Z,99.90
2018-06-07T00:38:41.142Z,99.90
2018-06-07T00:40:45.353Z,99.90
2018-06-07T00:42:48.528Z,99.90
2018-06-07T00:44:51.675Z,99.90
2018-06-07T00:46:54.847Z,99.90
2018-06-07T00:48:58.108Z,99.90
2018-06-07T00:51:01.921Z,99.90
2018-06-07T00:53:05.120Z,99.90
2018-06-07T00:55:08.393Z,99.90
2018-06-07T00:57:11.589Z,99.90
2018-06-07T00:59:14.757Z,99.90
2018-06-07T01:01:17.915Z,99.90
2018-06-07T01:05:24.007Z,99.90
2018-06-07T01:07:27.243Z,99.90
2018-06-07T01:09:30.398Z,99.90
2018-06-07T01:11:33.691Z,99.90
2018-06-07T01:13:36.860Z,99.90
2018-06-07T01:15:40.089Z,99.90
2018-06-07T01:17:43.265Z,99.90
2018-06-07T01:19:46.464Z,99.90
2018-06-07T01:21:49.612Z,99.90
2018-06-07T01:23:52.774Z,99.90
2018-06-07T01:25:55.940Z,99.90
2018-06-07T01:27:59.112Z,99.90
2018-06-07T01:30:19.219Z,99.90
2018-06-07T01:32:48.471Z,99.90
2018-06-07T01:34:51.655Z,99.90
2018-06-07T01:36:54.825Z,99.90
2018-06-07T01:39:18.073Z,99.90
2018-06-07T01:41:21.213Z,99.90
2018-06-07T01:43:24.351Z,99.90
2018-06-07T01:45:27.497Z,99.90
2018-06-07T01:47:30.704Z,99.90
2018-06-07T01:49:33.810Z,99.90
2018-06-07T01:51:36.952Z,99.90
2018-06-07T01:53:40.110Z,99.90
2018-06-07T01:55:43.264Z,99.90
2018-06-07T01:57:46.404Z,99.90
2018-06-07T01:59:49.552Z,99.90
2018-06-07T02:01:52.952Z,99.90
2018-06-07T02:03:56.093Z,99.90
2018-06-07T02:05:59.228Z,99.90
2018-06-07T02:08:02.448Z,99.90
2018-06-07T02:10:05.596Z,99.90
2018-06-07T02:12:08.720Z,99.90
2018-06-07T02:14:11.879Z,99.90
2018-06-07T02:16:15.060Z,99.90
2018-06-07T02:18:18.276Z,99.90
2018-06-07T02:20:21.419Z,99.90
2018-06-07T02:22:24.602Z,99.90
2018-06-07T02:24:27.746Z,99.90
2018-06-07T02:26:30.974Z,99.90
2018-06-07T02:28:34.111Z,99.90
2018-06-07T02:30:37.248Z,99.90
2018-06-07T02:32:40.596Z,99.90
2018-06-07T02:34:43.734Z,99.90
2018-06-07T02:36:46.907Z,99.90
2018-06-07T02:38:50.061Z,99.90
2018-06-07T02:40:53.228Z,99.90
2018-06-07T02:42:56.376Z,99.90
2018-06-07T02:44:59.519Z,99.90
2018-06-07T02:47:02.668Z,99.90
2018-06-07T02:49:05.939Z,99.90
2018-06-07T02:51:09.113Z,99.90
2018-06-07T02:53:12.309Z,99.90
2018-06-07T02:55:15.492Z,99.90
2018-06-07T02:57:18.682Z,99.90
2018-06-07T02:59:21.862Z,99.90
2018-06-07T03:01:25.029Z,99.90
2018-06-07T03:03:28.164Z,99.90
2018-06-07T03:05:31.403Z,99.90
2018-06-07T03:07:34.560Z,99.90
2018-06-07T03:09:37.712Z,99.90
2018-06-07T03:11:40.887Z,99.90
2018-06-07T03:13:44.071Z,99.90
2018-06-07T03:15:47.257Z,99.90
2018-06-07T03:17:50.419Z,99.90
2018-06-07T03:19:53.577Z,99.90
2018-06-07T03:21:56.765Z,99.90
2018-06-07T03:23:59.933Z,99.90
2018-06-07T03:26:03.120Z,99.90
2018-06-07T03:28:06.275Z,99.90
2018-06-07T03:30:09.415Z,99.90
2018-06-07T03:32:12.603Z,99.90
2018-06-07T03:34:15.755Z,99.90
2018-06-07T03:36:18.929Z,99.90
2018-06-07T03:40:25.034Z,99.90
2018-06-07T03:42:28.284Z,99.90
2018-06-07T03:44:31.420Z,99.90
2018-06-07T03:46:34.592Z,99.90
2018-06-07T03:48:37.755Z,99.90
2018-06-07T03:50:40.925Z,99.90
2018-06-07T03:52:44.086Z,99.90
2018-06-07T03:54:47.216Z,99.90
2018-06-07T03:56:50.361Z,99.90
2018-06-07T03:58:53.504Z,99.90
2018-06-07T04:00:57.548Z,99.90
2018-06-07T04:03:00.688Z,99.90
2018-06-07T04:05:03.828Z,99.90
2018-06-07T04:07:06.983Z,99.90
2018-06-07T04:09:10.147Z,99.90
2018-06-07T04:11:13.307Z,99.90
2018-06-07T04:13:16.501Z,99.90
2018-06-07T04:15:20.296Z,99.90
2018-06-07T04:17:23.444Z,99.90
2018-06-07T04:19:26.571Z,99.90
2018-06-07T04:21:29.741Z,99.90
2018-06-07T04:23:32.911Z,99.90
2018-06-07T04:25:36.049Z,99.90
2018-06-07T04:27:39.213Z,99.90
2018-06-07T04:29:42.337Z,99.90
2018-06-07T04:31:45.464Z,99.90
2018-06-07T04:33:49.352Z,99.90
2018-06-07T04:35:52.711Z,99.90
2018-06-07T04:37:55.934Z,99.90
2018-06-07T04:39:59.059Z,99.90
2018-06-07T04:42:02.226Z,99.90
2018-06-07T04:44:05.398Z,99.90
2018-06-07T04:46:08.567Z,99.90
2018-06-07T04:48:11.755Z,99.90
2018-06-07T04:50:14.933Z,99.90
2018-06-07T04:52:18.089Z,99.90
2018-06-07T04:54:21.240Z,99.90
2018-06-07T04:56:24.411Z,99.90
2018-06-07T04:58:27.564Z,99.90
2018-06-07T05:00:30.723Z,99.90
2018-06-07T05:02:34.011Z,99.90
2018-06-07T05:04:37.235Z,99.10
2018-06-07T05:06:40.507Z,95.80
2018-06-07T05:10:46.640Z,89.30
2018-06-07T05:12:49.784Z,85.30
2018-06-07T05:14:52.951Z,79.90
2018-06-07T05:16:56.099Z,77.50
2018-06-07T05:21:02.160Z,70.00
2018-06-07T05:25:08.232Z,65.00
2018-06-07T05:29:14.303Z,60.20
2018-06-07T05:33:20.393Z,58.70
2018-06-07T05:35:23.524Z,58.30
2018-06-07T05:37:26.758Z,56.90
2018-06-07T05:41:32.852Z,55.50
2018-06-07T05:43:36.013Z,55.10
2018-06-07T05:45:39.169Z,55.50
2018-06-07T05:49:45.296Z,53.90
2018-06-07T05:51:48.454Z,52.30
2018-06-07T05:53:51.575Z,52.40
2018-06-07T05:55:54.899Z,50.40
2018-06-07T05:57:57.973Z,50.10
2018-06-07T06:00:01.154Z,50.40
2018-06-07T06:02:04.295Z,49.50
2018-06-07T06:04:07.434Z,49.30
2018-06-07T06:06:10.603Z,48.60
2018-06-07T06:08:13.757Z,47.90
2018-06-07T06:10:16.909Z,48.10
2018-06-07T06:12:20.054Z,47.10
2018-06-07T06:14:23.256Z,48.40
2018-06-07T06:16:26.409Z,47.90
2018-06-07T06:18:29.544Z,47.00
2018-06-07T06:20:32.672Z,46.40
2018-06-07T06:22:36.054Z,45.60
2018-06-07T06:24:39.241Z,46.20
2018-06-07T06:26:42.361Z,46.10
2018-06-07T06:28:45.548Z,45.40
2018-06-07T06:30:49.628Z,43.40
2018-06-07T06:32:53.252Z,44.00
2018-06-07T06:34:56.459Z,43.70
2018-06-07T06:36:59.592Z,43.50
2018-06-07T06:39:02.901Z,42.00
2018-06-07T06:41:06.042Z,41.90
2018-06-07T06:43:09.170Z,42.30
2018-06-07T06:45:12.293Z,42.10
2018-06-07T06:47:15.425Z,41.80
2018-06-07T06:49:18.605Z,42.20
2018-06-07T06:51:21.683Z,41.90
2018-06-07T06:53:24.796Z,41.60
2018-06-07T06:55:28.028Z,40.60
2018-06-07T06:57:31.814Z,41.10
2018-06-07T06:59:34.949Z,43.20
2018-06-07T07:01:38.079Z,44.60
2018-06-07T07:03:41.238Z,46.00
2018-06-07T07:05:44.361Z,46.70
2018-06-07T07:07:47.735Z,46.70
2018-06-07T07:09:50.868Z,49.80
2018-06-07T07:11:53.992Z,51.00
2018-06-07T07:13:57.131Z,51.30
2018-06-07T07:18:03.176Z,55.90
2018-06-07T07:20:06.323Z,56.50
2018-06-07T07:22:09.472Z,56.40
2018-06-07T07:24:12.648Z,57.10
2018-06-07T07:26:15.805Z,58.20
2018-06-07T07:28:18.935Z,58.70
2018-06-07T07:30:22.093Z,60.60
2018-06-07T07:32:25.229Z,59.80
2018-06-07T07:34:28.561Z,59.70
2018-06-07T07:36:31.636Z,59.30
2018-06-07T07:38:34.789Z,59.10
2018-06-07T07:40:38.063Z,58.70
2018-06-07T07:42:41.201Z,59.80
2018-06-07T07:44:44.341Z,59.10
2018-06-07T07:46:47.518Z,58.70
2018-06-07T07:48:50.652Z,57.80
2018-06-07T07:50:53.787Z,58.30
2018-06-07T07:52:56.923Z,59.30
2018-06-07T07:55:00.079Z,59.60
2018-06-07T07:57:03.200Z,58.50
2018-06-07T07:59:06.319Z,58.30
2018-06-07T08:03:12.384Z,59.00
2018-06-07T08:05:15.520Z,59.60
2018-06-07T08:07:18.663Z,60.00
2018-06-07T08:09:21.812Z,60.20
2018-06-07T08:11:24.927Z,59.70
2018-06-07T08:13:28.061Z,60.40
2018-06-07T08:15:31.212Z,60.80
2018-06-07T08:17:34.421Z,61.30
2018-06-07T08:19:38.072Z,61.70
2018-06-07T08:21:41.240Z,61.30
2018-06-07T08:23:44.359Z,60.20
2018-06-07T08:25:47.506Z,59.80
2018-06-07T08:27:50.643Z,59.30
2018-06-07T08:29:53.801Z,58.80
2018-06-07T08:31:56.916Z,59.80
2018-06-07T08:34:00.052Z,58.70
2018-06-07T08:36:03.187Z,58.90
2018-06-07T08:38:06.328Z,59.10
2018-06-07T08:40:09.484Z,59.60
2018-06-07T08:42:12.712Z,60.00
2018-06-07T08:44:15.855Z,60.60
2018-06-07T08:46:19.010Z,59.10
2018-06-07T08:48:22.140Z,59.80
2018-06-07T08:50:25.824Z,59.40
2018-06-07T08:52:28.948Z,59.80
2018-06-07T08:54:32.116Z,61.00
2018-06-07T08:56:35.275Z,59.70
2018-06-07T08:58:38.423Z,59.20
2018-06-07T09:00:41.564Z,58.60
2018-06-07T09:02:44.690Z,59.10
2018-06-07T09:04:47.822Z,58.50
2018-06-07T09:06:50.946Z,57.40
2018-06-07T09:08:54.084Z,57.80
2018-06-07T09:10:57.219Z,58.30
2018-06-07T09:13:00.327Z,58.10
2018-06-07T09:15:03.484Z,58.00
2018-06-07T09:17:06.624Z,58.80
2018-06-07T09:19:09.744Z,58.10
2018-06-07T09:21:12.895Z,58.60
2018-06-07T09:23:16.025Z,58.30
2018-06-07T09:25:19.210Z,59.00
2018-06-07T09:27:22.360Z,57.30
2018-06-07T09:29:25.504Z,57.50
2018-06-07T09:31:28.644Z,58.20
2018-06-07T09:33:31.779Z,57.50
2018-06-07T09:35:34.931Z,58.80
2018-06-07T09:37:38.060Z,57.20
2018-06-07T09:39:41.208Z,56.40
2018-06-07T09:41:44.359Z,56.90
2018-06-07T09:43:47.496Z,57.30
2018-06-07T09:45:50.665Z,57.70
2018-06-07T09:47:53.816Z,57.50
2018-06-07T09:49:57.011Z,58.10
2018-06-07T09:52:00.147Z,58.60
2018-06-07T09:54:03.308Z,58.70
2018-06-07T09:56:06.483Z,57.00
2018-06-07T09:58:09.703Z,57.30
2018-06-07T10:00:18.217Z,56.40
2018-06-07T10:02:21.386Z,56.90
2018-06-07T10:04:24.541Z,57.70
2018-06-07T10:06:27.692Z,58.70
2018-06-07T10:08:30.865Z,58.10
2018-06-07T10:10:34.104Z,57.90
2018-06-07T10:12:37.268Z,57.20
2018-06-07T10:14:40.424Z,58.40
2018-06-07T10:16:43.579Z,58.00
2018-06-07T10:18:46.731Z,58.30
2018-06-07T10:20:50.589Z,58.20
2018-06-07T10:22:53.736Z,58.50
2018-06-07T10:24:56.883Z,58.40
2018-06-07T10:27:00.072Z,57.80
2018-06-07T10:29:03.215Z,56.90
2018-06-07T10:31:06.367Z,56.70
2018-06-07T10:33:09.580Z,57.10
2018-06-07T10:35:12.724Z,57.10
2018-06-07T10:37:15.873Z,57.10
2018-06-07T10:39:19.015Z,57.70
2018-06-07T10:41:22.199Z,57.30
2018-06-07T10:43:25.359Z,58.00
2018-06-07T10:45:28.504Z,57.70
2018-06-07T10:47:31.712Z,56.90
2018-06-07T10:49:34.820Z,56.50
2018-06-07T10:51:41.205Z,57.10
2018-06-07T10:53:44.367Z,56.80
2018-06-07T10:55:47.515Z,56.60
2018-06-07T10:57:50.730Z,56.00
2018-06-07T10:59:53.908Z,55.80
2018-06-07T11:01:57.073Z,56.10
2018-06-07T11:04:00.224Z,55.40
2018-06-07T11:06:03.380Z,55.70
2018-06-07T11:08:06.712Z,55.40
2018-06-07T11:10:09.869Z,55.70
2018-06-07T11:12:13.026Z,55.10
2018-06-07T11:14:16.176Z,56.20
2018-06-07T11:18:22.304Z,55.50
2018-06-07T11:20:25.504Z,55.50
2018-06-07T11:22:28.660Z,54.90
2018-06-07T11:24:33.613Z,54.30
2018-06-07T11:26:36.772Z,53.80
2018-06-07T11:28:39.909Z,54.70
2018-06-07T11:30:43.053Z,54.00
2018-06-07T11:32:46.204Z,54.80
2018-06-07T11:34:49.364Z,54.30
2018-06-07T11:38:55.503Z,54.40
2018-06-07T11:40:58.653Z,53.90
2018-06-07T11:43:01.768Z,53.10
2018-06-07T11:45:05.131Z,52.90
2018-06-07T11:47:08.315Z,53.40
2018-06-07T11:49:11.466Z,52.40
2018-06-07T11:51:14.596Z,52.10
2018-06-07T11:53:17.779Z,52.50
2018-06-07T11:55:20.920Z,52.10
2018-06-07T11:57:24.103Z,49.60
2018-06-07T11:59:27.243Z,49.60
2018-06-07T12:01:30.484Z,49.60
2018-06-07T12:03:33.862Z,49.40
2018-06-07T12:05:37.019Z,49.50
2018-06-07T12:07:40.178Z,49.30
2018-06-07T12:09:43.349Z,50.10
2018-06-07T12:11:46.518Z,49.60
2018-06-07T12:13:49.668Z,49.30
2018-06-07T12:15:52.828Z,49.90
2018-06-07T12:17:55.988Z,49.50
2018-06-07T12:22:02.124Z,49.00
2018-06-07T12:24:05.324Z,47.20
2018-06-07T12:26:08.495Z,46.40
2018-06-07T12:28:11.655Z,48.00
2018-06-07T12:30:14.803Z,46.80
2018-06-07T12:32:17.960Z,46.80
2018-06-07T12:34:21.103Z,48.10
2018-06-07T12:36:24.248Z,46.70
2018-06-07T12:38:27.415Z,46.20
2018-06-07T12:40:30.711Z,45.60
2018-06-07T12:42:33.746Z,44.00
2018-06-07T12:44:36.992Z,43.00
2018-06-07T12:46:40.170Z,42.70
2018-06-07T12:48:43.315Z,42.70
2018-06-07T12:50:46.476Z,42.50
2018-06-07T12:52:49.607Z,42.00
2018-06-07T12:54:52.760Z,41.00
2018-06-07T12:56:55.904Z,40.90
2018-06-07T12:58:59.043Z,39.30
2018-06-07T13:01:02.180Z,38.60
2018-06-07T13:03:05.376Z,42.50
2018-06-07T13:05:08.536Z,43.50
2018-06-07T13:07:11.680Z,44.60
2018-06-07T13:09:14.887Z,44.90
2018-06-07T13:11:18.154Z,45.60
2018-06-07T13:13:21.316Z,46.20
2018-06-07T13:15:24.476Z,47.50
2018-06-07T13:17:27.650Z,48.00
2018-06-07T13:19:30.787Z,47.20
2018-06-07T13:23:36.911Z,46.10
2018-06-07T13:25:40.072Z,46.90
2018-06-07T13:27:43.721Z,45.90
2018-06-07T13:29:46.874Z,46.30
2018-06-07T13:31:50.013Z,45.60
2018-06-07T13:33:53.202Z,45.50
2018-06-07T13:35:56.324Z,45.90
2018-06-07T13:37:59.482Z,46.70
2018-06-07T13:40:02.628Z,46.70
2018-06-07T13:42:05.782Z,45.90
2018-06-07T13:44:08.927Z,46.50
2018-06-07T13:48:14.996Z,46.40
2018-06-07T13:52:21.681Z,47.10
2018-06-07T13:56:27.747Z,47.30
2018-06-07T14:00:33.818Z,47.20
2018-06-07T14:02:36.960Z,46.90
2018-06-07T14:04:40.134Z,46.80
2018-06-07T14:06:43.273Z,46.10
2018-06-07T14:08:46.417Z,45.80
2018-06-07T14:10:49.628Z,44.90
2018-06-07T14:12:52.695Z,45.70
2018-06-07T14:14:55.846Z,45.60
2018-06-07T14:16:58.972Z,45.00
2018-06-07T14:19:02.121Z,45.70
2018-06-07T14:21:05.282Z,46.20
2018-06-07T14:25:11.388Z,47.10
2018-06-07T14:27:14.513Z,45.80
2018-06-07T14:29:17.668Z,47.60
2018-06-07T14:31:20.811Z,46.70
2018-06-07T14:33:24.281Z,46.00
2018-06-07T14:35:27.445Z,45.40
2018-06-07T14:37:30.592Z,44.30
2018-06-07T14:39:33.767Z,45.10
2018-06-07T14:41:36.928Z,44.60
2018-06-07T14:45:43.023Z,43.40
2018-06-07T14:47:46.268Z,43.10
2018-06-07T14:49:49.440Z,42.70
2018-06-07T14:51:52.580Z,43.40
2018-06-07T14:53:55.755Z,42.30
2018-06-07T14:58:01.803Z,42.50
2018-06-07T15:00:05.004Z,43.20
2018-06-07T15:04:11.080Z,42.40
2018-06-07T15:06:14.241Z,41.10
2018-06-07T15:08:17.422Z,41.60
2018-06-07T15:10:20.668Z,39.90
2018-06-07T15:12:23.819Z,41.60
2018-06-07T15:16:29.980Z,39.10
2018-06-07T15:18:33.125Z,39.80
2018-06-07T15:20:36.284Z,40.00
2018-06-07T15:22:39.550Z,40.20
2018-06-07T15:24:42.948Z,40.10
2018-06-07T15:28:49.178Z,39.50
2018-06-07T15:30:52.350Z,40.40
2018-06-07T15:32:55.569Z,39.90
2018-06-07T15:34:58.742Z,39.20
2018-06-07T15:37:01.964Z,39.80
2018-06-07T15:39:06.288Z,39.90
2018-06-07T15:41:09.459Z,38.60
2018-06-07T15:43:12.612Z,37.80
2018-06-07T15:45:15.776Z,37.50
2018-06-07T15:47:18.914Z,37.70
2018-06-07T15:51:25.051Z,40.20
2018-06-07T15:53:28.215Z,40.70
2018-06-07T15:55:31.394Z,39.10
2018-06-07T15:57:34.582Z,39.50
2018-06-07T15:59:37.777Z,40.30
2018-06-07T16:01:41.032Z,40.50
2018-06-07T16:07:50.176Z,43.00
2018-06-07T16:09:53.343Z,43.70
2018-06-07T16:11:56.500Z,44.60
2018-06-07T16:13:59.668Z,40.90
2018-06-07T16:16:02.843Z,43.30
2018-06-07T16:18:06.216Z,99.90
2018-06-07T16:22:12.272Z,68.80
2018-06-07T16:24:15.421Z,64.60
2018-06-07T16:26:18.702Z,58.70
2018-06-07T16:28:21.935Z,57.50
2018-06-07T16:30:25.142Z,57.70
2018-06-07T16:32:28.283Z,57.20
2018-06-07T16:34:31.502Z,65.90
2018-06-07T16:38:37.652Z,71.40
2018-06-07T16:42:43.752Z,75.80
2018-06-07T16:44:46.935Z,76.80
2018-06-07T16:46:50.060Z,75.80
2018-06-07T16:48:53.199Z,75.80
2018-06-07T16:50:56.360Z,77.80
2018-06-07T16:55:03.131Z,76.10
2018-06-07T16:57:06.271Z,76.50
2018-06-07T16:59:09.435Z,75.60
2018-06-07T17:01:12.568Z,76.20
2018-06-07T17:03:15.743Z,77.60
2018-06-07T17:05:19.043Z,72.90
2018-06-07T17:07:22.168Z,74.40
2018-06-07T17:09:25.323Z,70.70
2018-06-07T17:11:28.471Z,71.20
2018-06-07T17:13:31.731Z,72.60
2018-06-07T17:15:34.876Z,74.10
2018-06-07T17:17:38.142Z,75.20
2018-06-07T17:19:41.277Z,73.90
2018-06-07T17:21:44.442Z,75.90
2018-06-07T17:23:47.587Z,76.80
2018-06-07T17:25:50.752Z,77.50
2018-06-07T17:27:53.880Z,75.50
2018-06-07T17:29:57.322Z,77.20
2018-06-07T17:32:00.471Z,78.30
2018-06-07T17:34:03.784Z,78.80
2018-06-07T17:36:06.952Z,80.20
2018-06-07T17:38:10.103Z,80.40
2018-06-07T17:40:13.295Z,79.40
2018-06-07T17:42:16.586Z,78.30
2018-06-07T17:44:19.719Z,75.30
2018-06-07T17:46:22.880Z,74.60
2018-06-07T17:48:26.024Z,74.80
2018-06-07T17:50:29.204Z,74.30
2018-06-07T17:52:32.629Z,73.20
2018-06-07T17:54:35.802Z,70.70
2018-06-07T17:56:38.936Z,69.60
2018-06-07T17:58:42.104Z,70.20
2018-06-07T18:00:45.288Z,69.60
2018-06-07T18:02:48.442Z,71.00
2018-06-07T18:04:51.636Z,72.50
2018-06-07T18:06:54.820Z,75.90
2018-06-07T18:08:57.972Z,80.10
2018-06-07T18:11:01.128Z,70.00
2018-06-07T18:13:04.407Z,71.40
2018-06-07T18:15:07.577Z,70.80
2018-06-07T18:17:10.748Z,70.20
2018-06-07T18:19:13.904Z,69.60
2018-06-07T18:21:17.095Z,69.30
2018-06-07T18:23:20.243Z,70.00
2018-06-07T18:25:23.511Z,69.80
2018-06-07T18:27:26.697Z,70.20
2018-06-07T18:29:29.849Z,70.50
2018-06-07T18:31:33.076Z,71.10
2018-06-07T18:33:36.196Z,72.40
2018-06-07T18:35:39.368Z,72.30
2018-06-07T18:37:42.550Z,73.30
2018-06-07T18:39:45.687Z,74.50
2018-06-07T18:41:48.827Z,75.30
2018-06-07T18:43:51.989Z,76.00
2018-06-07T18:45:55.142Z,75.80
2018-06-07T18:47:58.286Z,76.70
2018-06-07T18:50:01.436Z,77.70
2018-06-07T18:52:04.591Z,77.70
2018-06-07T18:54:07.744Z,78.50
2018-06-07T18:56:10.897Z,78.80
2018-06-07T18:58:14.099Z,79.60
2018-06-07T19:00:17.248Z,80.60
2018-06-07T19:04:23.372Z,81.80
2018-06-07T19:06:26.524Z,83.10
2018-06-07T19:08:33.929Z,83.30
2018-06-07T19:10:37.080Z,84.50
2018-06-07T19:12:40.231Z,84.80
2018-06-07T19:14:48.756Z,85.50
2018-06-07T19:16:51.896Z,85.90
2018-06-07T19:19:00.436Z,85.70
2018-06-07T19:21:03.589Z,85.10
2018-06-07T19:23:06.775Z,85.50
2018-06-07T19:25:15.268Z,85.50
2018-06-07T19:27:23.894Z,85.80
2018-06-07T19:29:27.040Z,86.60
2018-06-07T19:31:30.219Z,85.50
2018-06-07T19:33:38.768Z,84.90
2018-06-07T19:37:44.835Z,84.00
2018-06-07T19:39:53.476Z,83.50
2018-06-07T19:42:02.079Z,83.70
2018-06-07T19:44:05.249Z,83.90
2018-06-07T19:46:08.384Z,83.30
2018-06-07T19:48:11.552Z,83.10
2018-06-07T19:50:14.837Z,82.60
2018-06-07T19:52:18.460Z,81.70
2018-06-07T19:54:21.943Z,81.00
2018-06-07T19:56:26.140Z,81.00
2018-06-07T19:58:29.428Z,81.90
2018-06-07T20:00:32.709Z,80.30
2018-06-07T20:02:35.899Z,79.10
2018-06-07T20:04:39.035Z,79.30
2018-06-07T20:06:42.196Z,79.00
2018-06-07T20:08:45.375Z,78.70
2018-06-07T20:10:48.504Z,78.80
2018-06-07T20:12:51.651Z,78.90
2018-06-07T20:14:54.805Z,79.00
2018-06-07T20:16:57.952Z,78.00
2018-06-07T20:19:01.143Z,78.30
2018-06-07T20:21:04.266Z,78.40
2018-06-07T20:25:10.446Z,78.40
2018-06-07T20:27:13.645Z,78.00
2018-06-07T20:29:16.774Z,77.40
2018-06-07T20:31:19.912Z,77.30
2018-06-07T20:33:24.296Z,77.10
2018-06-07T20:35:27.437Z,77.30
2018-06-07T20:37:31.223Z,77.30
2018-06-07T20:39:34.391Z,77.20
2018-06-07T20:41:37.660Z,77.60
2018-06-07T20:43:41.324Z,78.20
2018-06-07T20:45:44.517Z,79.00
2018-06-07T20:47:47.635Z,80.50
2018-06-07T20:49:50.767Z,81.50
2018-06-07T20:51:53.921Z,82.50
2018-06-07T20:53:57.089Z,83.20
2018-06-07T20:56:00.236Z,83.60
2018-06-07T20:58:03.540Z,83.50
2018-06-07T21:00:06.724Z,83.40
2018-06-07T21:02:09.859Z,83.90
2018-06-07T21:04:13.000Z,85.20
2018-06-07T21:06:16.374Z,87.10
2018-06-07T21:08:20.129Z,89.80
2018-06-07T21:10:23.282Z,90.80
2018-06-07T21:12:26.418Z,92.30
2018-06-07T21:14:29.552Z,93.50
2018-06-07T21:16:32.903Z,94.20
2018-06-07T21:18:36.064Z,95.10
2018-06-07T21:20:40.077Z,95.20
2018-06-07T21:22:43.257Z,95.40
2018-06-07T21:24:46.383Z,95.80
2018-06-07T21:26:49.592Z,96.50
2018-06-07T21:28:52.751Z,96.80
2018-06-07T21:30:55.887Z,97.50
2018-06-07T21:32:59.341Z,97.50
2018-06-07T21:35:02.482Z,98.40
2018-06-07T21:37:05.675Z,98.60
2018-06-07T21:39:09.034Z,99.60
2018-06-07T21:41:12.252Z,99.90
2018-06-07T21:43:15.441Z,99.90
2018-06-07T21:45:18.626Z,99.20
2018-06-07T21:47:21.848Z,99.20
2018-06-07T21:49:25.016Z,98.90
2018-06-07T21:51:28.163Z,99.00
2018-06-07T21:53:31.313Z,98.40
2018-06-07T21:55:34.873Z,97.10
2018-06-07T21:57:38.057Z,96.30
2018-06-07T21:59:41.207Z,96.30
2018-06-07T22:01:44.364Z,96.00
2018-06-07T22:03:47.515Z,95.40
2018-06-07T22:05:50.660Z,95.40
2018-06-07T22:07:53.822Z,95.10
2018-06-07T22:09:56.984Z,94.80
2018-06-07T22:12:00.128Z,94.40
2018-06-07T22:14:03.368Z,94.80
2018-06-07T22:16:06.511Z,94.60
2018-06-07T22:18:09.655Z,94.50
2018-06-07T22:20:12.872Z,94.40
2018-06-07T22:22:16.053Z,94.40
2018-06-07T22:24:19.228Z,94.40
2018-06-07T22:26:22.394Z,94.30
2018-06-07T22:28:25.575Z,93.80
2018-06-07T22:30:28.720Z,93.30
2018-06-07T22:32:31.876Z,92.50
2018-06-07T22:34:35.070Z,92.50
2018-06-07T22:36:38.192Z,91.90
2018-06-07T22:40:44.359Z,91.80
2018-06-07T22:42:47.496Z,91.70
2018-06-07T22:44:50.640Z,91.50
2018-06-07T22:46:53.769Z,91.30
2018-06-07T22:48:56.935Z,91.30
2018-06-07T22:51:00.068Z,91.20
2018-06-07T22:53:03.697Z,90.80
2018-06-07T22:55:06.827Z,90.20
2018-06-07T22:57:10.012Z,90.60
2018-06-07T22:59:13.112Z,90.50
2018-06-07T23:01:16.264Z,90.30
2018-06-07T23:03:19.476Z,90.20
2018-06-07T23:05:22.604Z,90.30
2018-06-07T23:07:25.760Z,90.10
2018-06-07T23:09:28.910Z,90.30
2018-06-07T23:11:32.033Z,90.40
2018-06-07T23:13:35.176Z,90.20
2018-06-07T23:15:38.335Z,90.00
2018-06-07T23:17:41.477Z,90.00
2018-06-07T23:19:44.640Z,89.40
2018-06-07T23:21:47.794Z,89.30
2018-06-07T23:23:50.929Z,90.00
2018-06-07T23:25:54.088Z,90.30
2018-06-07T23:27:57.224Z,91.00
2018-06-07T23:30:00.372Z,92.00
2018-06-07T23:32:03.521Z,92.10
2018-06-07T23:34:06.667Z,92.60
2018-06-07T23:36:09.809Z,93.20
2018-06-07T23:38:12.955Z,93.50
2018-06-07T23:40:16.141Z,93.80
2018-06-07T23:42:19.601Z,93.80
2018-06-07T23:44:22.734Z,93.60
2018-06-07T23:46:25.879Z,93.70
2018-06-07T23:48:29.076Z,93.90
2018-06-07T23:50:32.229Z,94.00
2018-06-07T23:52:35.423Z,95.10
2018-06-07T23:54:38.657Z,95.60
2018-06-07T23:56:41.801Z,95.80
2018-06-07T23:58:44.999Z,96.00
